北九州METAR電文


対馬(RJDT)
07/19 17:00
METAR RJDT 190800Z 23005G17KT 170V300 9999 FEW020 SCT025 BKN030
28/24 Q1007 RMK 1CU020 3CU025 6CU030 A2975=

壱岐(RJDB)
07/19 17:00
METAR RJDB 190800Z AUTO 22012KT 9999 FEW029 BKN150 29/27 Q1008 RMK
A2977=

小値賀(RJDO)
03/17 12:26
RJDO 170326Z 23010G20KT 9999 SCT030 15/09 Q1019 RMK A3010=

上五島(RJDK)
03/25 23:00
METAR RJDK 251400Z AUTO VRB02KT 9999 BKN020 15/13 Q1020 RMK A3014=

福江(RJFE)
07/19 17:00
METAR RJFE 190800Z 19011KT 9999 FEW008 SCT010 BKN015 28/27 Q1009 RMK
1ST008 3CU010 5CU015 A2980=

北九州(RJFR)
07/19 17:00
METAR RJFR 190800Z 05003KT 010V090 9999 FEW010 BKN/// 28/24 Q1008
RMK 1CU010 A2977=

芦屋(RJFA)
07/19 17:23
RJFA 190823Z 34003KT 290V010 9999 FEW020 BKN030 29/26 Q1007
RMK 1CU020 5CU030 A2976=

福岡(RJFF)
07/19 17:30
METAR RJFF 190830Z 19012KT 160V230 9999 FEW030 SCT040 33/26 Q1007
NOSIG RMK 1CU030 3CU040 A2976=

築城(RJFZ)
07/19 17:00
METAR RJFZ 190800Z 08007KT 9999 FEW010 SCT130 BKN250 29/26 Q1008 RMK
2CU010 3AC130 A2978=

目達原(RJDM)
07/19 17:00
METAR RJDM 190800Z 20018KT 9999 FEW020 SCT150 32/26 Q1009 RMK 1CU020
3AC150 A2979 MAX WIND 26KT=

佐賀(RJFS)
07/19 17:00
METAR RJFS 190800Z 19017KT 9999 FEW020 SCT035 30/27 Q1008 RMK 1CU020
3CU035 A2979=

佐世保(S-RH)
07/19 17:00
METAR S-RH 190800Z NIL=

長崎(RJFU)
07/19 17:00
METAR RJFU 190800Z 22015KT 9999 FEW010 SCT020 BKN030 31/26 Q1009 RMK
1CU010 3CU020 5CU030 A2980=

大分(RJFO)
07/19 17:00
METAR RJFO 190800Z VRB02KT 9999 FEW020 BKN/// 28/24 Q1008 RMK 1CU020
A2977=
Copyright(c) 2014 International Meteorological & Oceanographic Consultants Co,.Ltd. All Rights Reserved. Design by http://f-tpl.com